Time;durP1;ratioP1;P1;durP2;ratioP2;P2;SDS_P1;SDS_P2;PMS_P1;PMS_P2;Temp;Humidity;BMP_temperature;BMP_pressure;BME280_temperature;BME280_humidity;BME280_pressure;Samples;Min_cycle;Max_cycle;Signal;HPM_P1;HPM_P2
2023/08/26 00:01:31;;;;;;;1.88;1.55;;;19.60;99.90;;;;;;5031981;28;20036;-58
2023/08/26 00:03:57;;;;;;;1.85;1.50;;;19.60;99.90;;;;;;5027764;28;20037;-58
2023/08/26 00:06:22;;;;;;;1.38;1.20;;;19.50;99.90;;;;;;5026662;28;20026;-58
2023/08/26 00:08:50;;;;;;;2.03;1.15;;;19.50;99.90;;;;;;5030425;28;20021;-59
2023/08/26 00:11:15;;;;;;;2.45;0.93;;;19.50;99.90;;;;;;5029558;28;20579;-58
2023/08/26 00:13:41;;;;;;;1.88;1.70;;;19.50;99.90;;;;;;5030480;28;20035;-58
2023/08/26 00:16:06;;;;;;;2.67;1.70;;;19.50;99.90;;;;;;5030713;28;20038;-58
2023/08/26 00:18:32;;;;;;;4.35;2.05;;;19.50;99.90;;;;;;5030502;28;20037;-59
2023/08/26 00:20:58;;;;;;;1.65;1.20;;;19.40;99.90;;;;;;5028906;28;20605;-56
2023/08/26 00:23:24;;;;;;;2.13;1.35;;;19.40;99.90;;;;;;5031517;28;20033;-58
2023/08/26 00:25:50;;;;;;;2.40;1.40;;;19.40;99.90;;;;;;5026930;28;20045;-57
2023/08/26 00:28:15;;;;;;;1.38;0.88;;;19.40;99.90;;;;;;5032907;28;20034;-58
2023/08/26 00:30:41;;;;;;;2.72;2.05;;;19.40;99.90;;;;;;5029166;28;20033;-58
2023/08/26 00:33:07;;;;;;;2.08;1.20;;;19.30;99.90;;;;;;5021616;28;20057;-58
2023/08/26 00:35:32;;;;;;;4.68;1.88;;;19.30;99.90;;;;;;5029447;28;20021;-60
2023/08/26 00:37:58;;;;;;;1.02;0.80;;;19.30;99.90;;;;;;5029805;28;20086;-58
2023/08/26 00:40:24;;;;;;;1.20;1.10;;;19.20;99.90;;;;;;5029962;28;20124;-57
2023/08/26 00:42:54;;;;;;;1.40;1.20;;;19.20;99.90;;;;;;5028566;28;20033;-59
2023/08/26 00:45:19;;;;;;;1.95;1.83;;;19.20;99.90;;;;;;5034351;28;20566;-57
2023/08/26 00:47:45;;;;;;;1.50;1.00;;;19.20;99.90;;;;;;5034128;28;20057;-59
2023/08/26 00:50:11;;;;;;;1.73;1.50;;;19.20;99.90;;;;;;5024589;28;20116;-59
2023/08/26 00:52:38;;;;;;;1.65;1.05;;;19.10;99.90;;;;;;5031059;28;20516;-59
2023/08/26 00:55:05;;;;;;;7.57;6.97;;;19.10;99.90;;;;;;5034285;28;20091;-58
2023/08/26 00:57:31;;;;;;;8.98;8.18;;;19.20;99.90;;;;;;5031856;28;20030;-58
2023/08/26 00:59:57;;;;;;;9.15;7.00;;;19.20;99.90;;;;;;5033433;28;20026;-57
2023/08/26 01:02:22;;;;;;;1999.90;999.90;;;19.20;99.90;;;;;;5024738;28;20037;-58
2023/08/26 01:04:49;;;;;;;84.97;59.75;;;19.30;99.90;;;;;;5025319;28;20041;-59
2023/08/26 01:07:14;;;;;;;407.35;55.25;;;19.30;99.90;;;;;;5027857;28;20025;-58
2023/08/26 01:09:40;;;;;;;1025.47;254.15;;;19.30;99.90;;;;;;5029352;28;20092;-57
2023/08/26 01:12:26;;;;;;;11.75;10.55;;;19.40;99.90;;;;;;5029505;28;20045;-58
2023/08/26 01:15:02;;;;;;;9.90;9.10;;;19.40;99.90;;;;;;5031598;28;20036;-59
2023/08/26 01:17:28;;;;;;;10.95;10.05;;;19.40;99.90;;;;;;5026678;28;20044;-58
2023/08/26 01:19:56;;;;;;;12.90;11.77;;;19.40;99.90;;;;;;5031974;28;20045;-57
2023/08/26 01:22:26;;;;;;;12.23;10.52;;;19.50;99.90;;;;;;5028015;28;20137;-59
2023/08/26 01:24:52;;;;;;;10.20;9.38;;;19.50;99.90;;;;;;5023002;28;20088;-58
2023/08/26 01:27:18;;;;;;;11.57;8.75;;;19.50;99.90;;;;;;5021396;28;20572;-60
2023/08/26 01:29:43;;;;;;;9.80;8.90;;;19.50;99.90;;;;;;5028608;28;20026;-58
2023/08/26 01:32:42;;;;;;;10.80;9.05;;;19.60;99.90;;;;;;5027789;28;20025;-58
2023/08/26 01:35:11;;;;;;;189.75;131.18;;;19.60;99.90;;;;;;5025306;28;20044;-59
2023/08/26 01:37:41;;;;;;;10.63;9.55;;;19.60;99.90;;;;;;5024629;28;20409;-59
2023/08/26 01:40:09;;;;;;;24.02;11.13;;;19.60;99.90;;;;;;5028679;28;20025;-58
2023/08/26 01:42:39;;;;;;;12.65;9.07;;;19.60;99.90;;;;;;5028483;28;20022;-59
2023/08/26 01:45:06;;;;;;;17.70;9.63;;;19.50;99.90;;;;;;5030180;28;20029;-58
2023/08/26 01:47:32;;;;;;;12.90;10.18;;;19.50;99.90;;;;;;5030778;28;20377;-58
2023/08/26 01:49:57;;;;;;;13.90;9.85;;;19.50;99.90;;;;;;5030817;28;20036;-58
2023/08/26 01:52:23;;;;;;;13.50;11.00;;;19.50;99.90;;;;;;5029101;28;20034;-58
2023/08/26 01:54:49;;;;;;;16.50;10.70;;;19.50;99.90;;;;;;5030970;28;20029;-57
2023/08/26 01:57:17;;;;;;;15.32;10.48;;;19.50;99.90;;;;;;5029951;28;20033;-57
2023/08/26 01:59:43;;;;;;;16.13;10.68;;;19.40;99.90;;;;;;5033450;28;20040;-59
2023/08/26 02:02:09;;;;;;;14.32;11.48;;;19.30;99.90;;;;;;5030610;28;20501;-60
2023/08/26 02:04:37;;;;;;;13.43;12.07;;;19.30;99.90;;;;;;5029423;28;20029;-59
2023/08/26 02:07:03;;;;;;;18.73;12.82;;;19.30;99.90;;;;;;5026884;28;20521;-57
2023/08/26 02:09:29;;;;;;;22.30;13.75;;;19.20;99.90;;;;;;5028009;28;20034;-59
2023/08/26 02:11:54;;;;;;;17.92;13.32;;;19.20;99.90;;;;;;5027441;28;20028;-57
2023/08/26 02:14:20;;;;;;;11.85;10.85;;;19.20;99.90;;;;;;5029726;28;20044;-58
2023/08/26 02:16:46;;;;;;;245.13;146.40;;;19.30;99.90;;;;;;5030595;28;20047;-58
2023/08/26 02:19:11;;;;;;;101.78;17.10;;;19.30;99.90;;;;;;5022640;28;20049;-57
2023/08/26 02:21:37;;;;;;;49.38;18.27;;;19.30;99.90;;;;;;5025991;28;20108;-58
2023/08/26 02:24:03;;;;;;;21.85;15.73;;;19.30;99.90;;;;;;5025632;28;20104;-58
2023/08/26 02:26:29;;;;;;;38.92;34.80;;;19.30;99.90;;;;;;5020596;28;20164;-59
2023/08/26 02:28:55;;;;;;;1999.90;999.90;;;19.30;99.90;;;;;;5021174;28;20569;-59
2023/08/26 02:31:20;;;;;;;1999.90;999.90;;;19.30;99.90;;;;;;5021979;28;20029;-57
2023/08/26 02:33:46;;;;;;;318.23;114.50;;;19.20;99.90;;;;;;5026580;28;20037;-58
2023/08/26 02:36:12;;;;;;;814.70;82.25;;;19.20;99.90;;;;;;5025507;28;20028;-59
2023/08/26 02:38:37;;;;;;;258.10;140.48;;;19.20;99.90;;;;;;5024508;28;20022;-59
2023/08/26 02:41:03;;;;;;;1999.90;999.90;;;19.10;99.90;;;;;;5016508;28;20023;-58
2023/08/26 02:43:29;;;;;;;382.13;31.65;;;19.10;99.90;;;;;;5027285;28;20442;-59
2023/08/26 02:45:55;;;;;;;1999.90;999.90;;;19.10;99.90;;;;;;5022802;28;20036;-58
2023/08/26 02:48:22;;;;;;;1999.90;999.90;;;19.10;99.90;;;;;;5024492;28;20029;-58
2023/08/26 02:50:58;;;;;;;1999.90;999.90;;;19.10;99.90;;;;;;5024138;28;20022;-57
2023/08/26 02:53:25;;;;;;;1999.90;999.90;;;19.10;99.90;;;;;;5021716;28;20064;-60
2023/08/26 02:55:51;;;;;;;1999.90;999.90;;;19.10;99.90;;;;;;5024439;28;20032;-57
2023/08/26 02:58:18;;;;;;;1999.90;999.90;;;19.00;99.90;;;;;;5029358;28;20648;-57
2023/08/26 03:00:44;;;;;;;1999.90;999.90;;;19.00;99.90;;;;;;5024124;28;20025;-56
2023/08/26 03:03:09;;;;;;;1999.90;999.90;;;19.00;99.90;;;;;;5018709;28;20374;-58
2023/08/26 03:05:35;;;;;;;1999.90;999.90;;;19.10;99.90;;;;;;5025089;28;20017;-57
2023/08/26 03:08:01;;;;;;;1999.90;999.90;;;19.00;99.90;;;;;;5028095;28;20037;-58
2023/08/26 03:10:26;;;;;;;1999.90;999.90;;;19.00;99.90;;;;;;5023673;28;20038;-58
2023/08/26 03:12:54;;;;;;;1999.90;999.90;;;18.90;99.90;;;;;;5027006;28;20041;-59
2023/08/26 03:15:20;;;;;;;1999.90;999.90;;;18.90;99.90;;;;;;5024779;28;20021;-58
2023/08/26 03:17:45;;;;;;;1999.90;999.90;;;18.90;99.90;;;;;;5031024;28;20032;-58
2023/08/26 03:20:11;;;;;;;1999.90;999.90;;;18.90;99.90;;;;;;5023459;28;20109;-59
2023/08/26 03:22:37;;;;;;;187.52;33.88;;;18.90;99.90;;;;;;5029985;28;20065;-57
2023/08/26 03:25:02;;;;;;;1504.80;754.65;;;18.90;99.90;;;;;;5032141;28;20026;-58
2023/08/26 03:27:29;;;;;;;161.68;82.68;;;18.90;99.90;;;;;;5026719;28;20025;-57
2023/08/26 03:29:54;;;;;;;1999.90;999.90;;;18.90;99.90;;;;;;5033939;28;20033;-57
2023/08/26 03:32:20;;;;;;;1999.90;999.90;;;18.90;99.90;;;;;;5027784;28;20030;-57
2023/08/26 03:34:46;;;;;;;1999.90;999.90;;;18.80;99.90;;;;;;5029184;28;20213;-58
2023/08/26 03:37:11;;;;;;;1999.90;999.90;;;18.90;99.90;;;;;;5030055;28;20473;-59
2023/08/26 03:39:37;;;;;;;31.23;21.27;;;18.90;99.90;;;;;;5031284;28;20034;-58
2023/08/26 03:42:03;;;;;;;14.00;10.63;;;18.90;99.90;;;;;;5031424;28;20026;-57
2023/08/26 03:44:28;;;;;;;1999.90;999.90;;;18.90;99.90;;;;;;5033139;28;20646;-58
2023/08/26 03:46:54;;;;;;;1999.90;999.90;;;18.90;99.90;;;;;;5031824;28;20056;-58
2023/08/26 03:49:20;;;;;;;1999.90;999.90;;;18.90;99.90;;;;;;5034093;28;20116;-57
2023/08/26 03:51:45;;;;;;;24.52;20.98;;;18.90;99.90;;;;;;5029984;28;20021;-59
2023/08/26 03:54:11;;;;;;;24.25;15.05;;;18.90;99.90;;;;;;5030728;28;20022;-58
2023/08/26 03:56:37;;;;;;;22.85;14.50;;;18.90;99.90;;;;;;5030684;28;20091;-57
2023/08/26 03:59:02;;;;;;;18.77;13.52;;;18.90;99.90;;;;;;5031720;28;20022;-58
2023/08/26 04:01:30;;;;;;;13.30;12.25;;;18.90;99.90;;;;;;5033874;28;20117;-58
2023/08/26 04:03:57;;;;;;;18.92;9.05;;;18.90;99.90;;;;;;5034368;28;20029;-58
2023/08/26 04:06:25;;;;;;;1999.90;999.90;;;18.90;99.90;;;;;;5029267;28;20026;-58
2023/08/26 04:08:51;;;;;;;1999.90;999.90;;;18.90;99.90;;;;;;5031514;28;20393;-58
2023/08/26 04:11:17;;;;;;;1999.90;999.90;;;18.90;99.90;;;;;;5030734;28;20022;-59
2023/08/26 04:13:45;;;;;;;1999.90;999.90;;;18.90;99.90;;;;;;5030477;28;20112;-58
2023/08/26 04:16:11;;;;;;;1999.90;999.90;;;18.90;99.90;;;;;;5029449;28;20521;-59
2023/08/26 04:18:37;;;;;;;1999.90;999.90;;;18.90;99.90;;;;;;5029757;28;20026;-58
2023/08/26 04:21:03;;;;;;;1999.90;999.90;;;18.90;99.90;;;;;;5030646;28;20397;-59
2023/08/26 04:23:29;;;;;;;1999.90;999.90;;;18.90;99.90;;;;;;5031175;28;20026;-57
2023/08/26 04:26:02;;;;;;;1999.90;999.90;;;18.80;99.90;;;;;;5030702;28;20509;-58
2023/08/26 04:28:29;;;;;;;1999.90;999.90;;;18.80;99.90;;;;;;5033713;28;20066;-57
2023/08/26 04:30:56;;;;;;;21.58;19.85;;;18.80;99.90;;;;;;5029416;28;20030;-59
2023/08/26 04:33:22;;;;;;;1999.90;999.90;;;18.80;99.90;;;;;;5034896;28;20145;-58
2023/08/26 04:35:47;;;;;;;1999.90;999.90;;;18.80;99.90;;;;;;5031020;28;20100;-56
2023/08/26 04:38:13;;;;;;;1999.90;999.90;;;18.80;99.90;;;;;;5030168;28;20030;-57
2023/08/26 04:40:41;;;;;;;1051.60;533.50;;;18.80;99.90;;;;;;5029859;28;20022;-59
2023/08/26 04:43:08;;;;;;;23.10;13.50;;;18.70;99.90;;;;;;5028823;28;20108;-58
2023/08/26 04:45:34;;;;;;;27.42;14.40;;;18.70;99.90;;;;;;5030134;28;20560;-59
2023/08/26 04:48:00;;;;;;;13.75;12.35;;;18.70;99.90;;;;;;5029320;28;20034;-58
2023/08/26 04:50:26;;;;;;;1999.90;999.90;;;18.60;99.90;;;;;;5035284;28;20079;-56
2023/08/26 04:52:51;;;;;;;1999.90;999.90;;;18.60;99.90;;;;;;5037274;28;20045;-58
2023/08/26 04:55:17;;;;;;;54.05;37.03;;;18.70;99.90;;;;;;5021956;28;20030;-59
2023/08/26 04:57:43;;;;;;;46.90;36.38;;;18.70;99.90;;;;;;5024636;28;20092;-59
2023/08/26 05:00:10;;;;;;;1999.90;999.90;;;18.70;99.90;;;;;;5022283;28;20033;-57
2023/08/26 05:02:39;;;;;;;1999.90;999.90;;;18.70;99.90;;;;;;5036528;28;20134;-57
2023/08/26 05:05:05;;;;;;;1999.90;999.90;;;18.70;99.90;;;;;;5038500;28;20120;-58
2023/08/26 05:07:32;;;;;;;1999.90;999.90;;;18.80;99.90;;;;;;5027916;28;20033;-57
2023/08/26 05:09:57;;;;;;;1999.90;999.90;;;18.80;99.90;;;;;;5023653;28;20734;-58
2023/08/26 05:12:24;;;;;;;1999.90;999.90;;;18.80;99.90;;;;;;5025899;28;20128;-56
2023/08/26 05:14:49;;;;;;;1999.90;999.90;;;18.80;99.90;;;;;;5032465;28;20677;-58
2023/08/26 05:17:16;;;;;;;1999.90;999.90;;;18.90;99.90;;;;;;5032881;28;20029;-57
2023/08/26 05:19:42;;;;;;;46.88;43.47;;;18.90;99.90;;;;;;5031134;28;20041;-57
2023/08/26 05:22:08;;;;;;;47.78;44.38;;;18.90;99.90;;;;;;5025225;28;20080;-58
2023/08/26 05:24:34;;;;;;;44.30;40.95;;;18.90;99.90;;;;;;5022182;28;20026;-59
2023/08/26 05:26:59;;;;;;;42.58;39.65;;;18.90;99.90;;;;;;5028367;28;20032;-58
2023/08/26 05:29:25;;;;;;;43.03;21.75;;;18.90;99.90;;;;;;5028834;28;20065;-57
2023/08/26 05:31:51;;;;;;;36.67;24.50;;;18.90;99.90;;;;;;5023350;28;20071;-59
2023/08/26 05:34:16;;;;;;;36.38;33.33;;;18.90;99.90;;;;;;5028430;28;20038;-59
2023/08/26 05:36:42;;;;;;;35.83;32.53;;;18.90;99.90;;;;;;5021529;28;20030;-56
2023/08/26 05:39:07;;;;;;;40.33;33.65;;;19.00;99.90;;;;;;5026988;28;20041;-58
2023/08/26 05:41:33;;;;;;;1999.90;999.90;;;19.00;99.90;;;;;;5025856;28;20056;-57
2023/08/26 05:43:59;;;;;;;1999.90;999.90;;;19.00;99.90;;;;;;5025150;28;20038;-56
2023/08/26 05:46:24;;;;;;;1999.90;999.90;;;19.00;99.90;;;;;;5026512;28;20025;-58
2023/08/26 05:48:50;;;;;;;1999.90;999.90;;;19.10;99.90;;;;;;5028751;28;20029;-58
2023/08/26 05:51:15;;;;;;;1999.90;999.90;;;19.20;99.90;;;;;;5030811;28;20611;-58
2023/08/26 05:53:41;;;;;;;1999.90;999.90;;;19.20;99.90;;;;;;5031742;28;20096;-58
2023/08/26 05:56:07;;;;;;;1999.90;999.90;;;19.30;99.90;;;;;;5029908;28;20419;-57
2023/08/26 05:58:32;;;;;;;27.20;25.73;;;19.30;99.90;;;;;;5030524;28;20029;-58
2023/08/26 06:00:58;;;;;;;25.17;23.45;;;19.30;99.90;;;;;;5030213;28;20525;-57
2023/08/26 06:03:23;;;;;;;26.60;24.13;;;19.30;99.90;;;;;;5011180;28;20045;-57
2023/08/26 06:05:49;;;;;;;27.23;25.33;;;19.30;99.90;;;;;;5029069;28;20648;-59
2023/08/26 06:08:15;;;;;;;24.75;23.25;;;19.30;99.90;;;;;;5025083;28;20078;-58
2023/08/26 06:10:40;;;;;;;1999.90;999.90;;;19.30;99.90;;;;;;5031293;28;20025;-56
2023/08/26 06:13:06;;;;;;;29.60;27.45;;;19.40;99.90;;;;;;5031262;28;20033;-58
2023/08/26 06:15:31;;;;;;;25.75;24.27;;;19.30;99.90;;;;;;5028135;28;20108;-58
2023/08/26 06:17:59;;;;;;;11.50;10.35;;;19.30;99.90;;;;;;5031312;28;20196;-59
2023/08/26 06:20:25;;;;;;;14.90;11.63;;;19.30;99.90;;;;;;5032042;28;20748;-58
2023/08/26 06:22:51;;;;;;;13.48;12.13;;;19.30;99.90;;;;;;5028150;28;20029;-59
2023/08/26 06:25:17;;;;;;;12.82;11.55;;;19.30;99.90;;;;;;5029114;28;20106;-58
2023/08/26 06:27:43;;;;;;;13.38;12.15;;;19.30;99.90;;;;;;5028789;28;20435;-57
2023/08/26 06:30:09;;;;;;;12.77;11.45;;;19.40;99.90;;;;;;5029210;28;20017;-57
2023/08/26 06:32:34;;;;;;;13.13;11.82;;;19.40;99.90;;;;;;5034290;28;20477;-58
2023/08/26 06:35:00;;;;;;;14.73;13.63;;;19.50;99.90;;;;;;5028658;28;20041;-58
2023/08/26 06:37:26;;;;;;;14.00;12.80;;;19.50;99.90;;;;;;5029183;28;20485;-58
2023/08/26 06:39:52;;;;;;;14.43;12.98;;;19.60;99.90;;;;;;5026724;28;20045;-59
2023/08/26 06:42:18;;;;;;;14.57;13.52;;;19.60;99.90;;;;;;5028459;28;20117;-59
2023/08/26 06:44:43;;;;;;;15.07;13.60;;;19.70;99.90;;;;;;5028118;28;20018;-58
2023/08/26 06:47:09;;;;;;;13.88;12.77;;;19.70;99.90;;;;;;5029222;28;20026;-59
2023/08/26 06:49:35;;;;;;;15.32;14.07;;;19.80;99.90;;;;;;5023658;28;20029;-59
2023/08/26 06:52:02;;;;;;;13.63;12.48;;;20.10;99.90;;;;;;5020713;28;20044;-57
2023/08/26 06:54:28;;;;;;;13.65;12.65;;;20.30;99.90;;;;;;5026291;28;20038;-56
2023/08/26 06:56:54;;;;;;;13.80;12.90;;;20.40;99.90;;;;;;5021382;28;20034;-58
2023/08/26 06:59:19;;;;;;;14.20;11.70;;;20.40;99.90;;;;;;5026363;28;20391;-57
2023/08/26 07:01:45;;;;;;;13.15;12.07;;;20.30;99.90;;;;;;5025450;28;20032;-56
2023/08/26 07:04:11;;;;;;;12.07;11.07;;;20.20;99.90;;;;;;5025335;28;20060;-59
2023/08/26 07:06:37;;;;;;;15.63;10.55;;;20.10;99.90;;;;;;5026535;28;20378;-59
2023/08/26 07:09:04;;;;;;;13.93;12.52;;;20.10;99.90;;;;;;5025105;28;20022;-59
2023/08/26 07:11:30;;;;;;;22.02;20.52;;;20.00;99.90;;;;;;5028827;28;20017;-59
2023/08/26 07:13:55;;;;;;;1999.90;999.90;;;19.90;99.90;;;;;;5023697;28;20052;-56
2023/08/26 07:16:21;;;;;;;1999.90;999.90;;;19.90;99.90;;;;;;5024478;28;20379;-58
2023/08/26 07:18:47;;;;;;;1999.90;999.90;;;19.80;99.90;;;;;;5028053;28;20497;-58
2023/08/26 07:21:15;;;;;;;1999.90;999.90;;;19.80;99.90;;;;;;5029345;28;20044;-60
2023/08/26 07:23:40;;;;;;;1999.90;999.90;;;19.80;99.90;;;;;;5027788;28;20049;-59
2023/08/26 07:26:06;;;;;;;1999.90;999.90;;;19.90;99.90;;;;;;5029393;28;20120;-58
2023/08/26 07:28:32;;;;;;;1999.90;999.90;;;20.00;99.90;;;;;;5023959;28;20390;-59
2023/08/26 07:31:02;;;;;;;1999.90;999.90;;;20.00;99.90;;;;;;5029925;28;20647;-57
2023/08/26 07:33:28;;;;;;;1999.90;999.90;;;20.10;99.90;;;;;;5024288;28;20493;-57
2023/08/26 07:36:08;;;;;;;1999.90;999.90;;;20.20;99.90;;;;;;5031861;28;20121;-57
2023/08/26 07:38:34;;;;;;;1999.90;999.90;;;20.20;99.90;;;;;;5022777;28;20038;-59
2023/08/26 07:41:00;;;;;;;1999.90;999.90;;;20.10;99.90;;;;;;5024909;28;20025;-58
2023/08/26 07:43:25;;;;;;;1999.90;999.90;;;20.10;99.90;;;;;;5028768;28;20029;-60
2023/08/26 07:45:51;;;;;;;1999.90;999.90;;;20.20;99.90;;;;;;5029663;28;20799;-58
2023/08/26 07:48:17;;;;;;;1999.90;999.90;;;20.20;99.90;;;;;;5030915;28;20027;-58
2023/08/26 07:50:42;;;;;;;1016.22;515.50;;;20.20;99.90;;;;;;5027218;28;20505;-59
2023/08/26 07:53:08;;;;;;;1999.90;999.90;;;20.20;99.90;;;;;;5021289;28;20030;-57
2023/08/26 07:55:34;;;;;;;1999.90;999.90;;;20.20;99.90;;;;;;5026793;28;20040;-58
2023/08/26 07:58:00;;;;;;;10.15;5.20;;;20.20;99.90;;;;;;5034362;28;20076;-60
2023/08/26 08:00:26;;;;;;;10.52;6.00;;;20.30;99.90;;;;;;5025015;28;20038;-58
2023/08/26 08:02:51;;;;;;;7.45;6.75;;;20.40;99.90;;;;;;5026948;28;20208;-57
2023/08/26 08:05:17;;;;;;;8.30;5.45;;;20.70;99.90;;;;;;5016027;28;20077;-59
2023/08/26 08:07:43;;;;;;;14.00;6.00;;;21.00;99.90;;;;;;5016513;28;20061;-59
2023/08/26 08:10:09;;;;;;;1999.90;999.90;;;21.10;99.90;;;;;;5020637;28;20029;-58
2023/08/26 08:12:35;;;;;;;1999.90;999.90;;;21.10;99.90;;;;;;5023821;28;20034;-57
2023/08/26 08:15:01;;;;;;;1999.90;999.90;;;21.00;99.90;;;;;;5020589;28;20030;-57
2023/08/26 08:17:27;;;;;;;1999.90;999.90;;;21.00;99.90;;;;;;5024894;28;20045;-60
2023/08/26 08:19:52;;;;;;;1999.90;999.90;;;21.00;99.90;;;;;;5024180;28;20508;-58
2023/08/26 08:22:20;;;;;;;1999.90;999.90;;;21.00;99.90;;;;;;5030133;28;20450;-57
2023/08/26 08:24:46;;;;;;;1999.90;999.90;;;21.00;99.90;;;;;;5029056;28;20520;-57
2023/08/26 08:27:12;;;;;;;1999.90;999.90;;;20.90;99.90;;;;;;5029856;28;20022;-58
2023/08/26 08:29:37;;;;;;;1999.90;999.90;;;20.90;99.90;;;;;;5031814;28;20525;-58
2023/08/26 08:32:03;;;;;;;1999.90;999.90;;;20.90;99.90;;;;;;5030299;28;20045;-58
2023/08/26 08:34:29;;;;;;;1999.90;999.90;;;20.90;99.90;;;;;;5028432;28;20104;-59
2023/08/26 08:36:54;;;;;;;27.00;25.35;;;20.80;99.90;;;;;;5019889;28;20033;-59
2023/08/26 08:39:20;;;;;;;12.65;11.50;;;20.70;99.90;;;;;;5025758;28;20029;-60
2023/08/26 08:41:48;;;;;;;4.18;2.90;;;20.70;99.90;;;;;;5028768;28;20013;-60
2023/08/26 08:44:16;;;;;;;4.97;2.50;;;20.70;99.90;;;;;;5031448;28;20137;-57
2023/08/26 08:46:42;;;;;;;5.22;2.63;;;20.90;99.90;;;;;;5029650;28;20040;-58
2023/08/26 08:49:09;;;;;;;4.25;2.67;;;21.00;99.90;;;;;;5044509;28;20513;-59
2023/08/26 08:51:37;;;;;;;6.80;2.63;;;21.00;99.90;;;;;;5031539;28;20091;-60
2023/08/26 08:54:04;;;;;;;9.55;3.30;;;21.00;99.90;;;;;;5025606;28;20045;-59
2023/08/26 08:56:32;;;;;;;5.40;3.00;;;21.00;99.90;;;;;;5030610;28;20076;-59
2023/08/26 08:58:59;;;;;;;4.32;2.60;;;20.90;99.90;;;;;;5031062;28;20083;-59
2023/08/26 09:01:25;;;;;;;5.60;3.22;;;20.90;99.90;;;;;;5029183;28;20037;-58
2023/08/26 09:03:51;;;;;;;8.40;2.55;;;21.00;99.90;;;;;;5028670;28;20025;-57
2023/08/26 09:06:20;;;;;;;10.57;8.07;;;21.20;99.90;;;;;;5031156;28;20070;-57
2023/08/26 09:08:45;;;;;;;3.97;2.22;;;21.30;99.90;;;;;;5027619;28;20022;-58
2023/08/26 09:11:15;;;;;;;4.63;2.03;;;21.30;99.90;;;;;;5030712;28;20033;-59
2023/08/26 09:13:40;;;;;;;5.18;2.53;;;21.40;99.90;;;;;;5029542;28;20111;-58
2023/08/26 09:16:07;;;;;;;5.28;3.35;;;21.40;99.90;;;;;;5030102;28;20045;-59
2023/08/26 09:18:38;;;;;;;5.55;2.60;;;21.50;99.90;;;;;;5026152;28;20036;-59
2023/08/26 09:21:10;;;;;;;7.72;2.60;;;21.70;99.90;;;;;;5025666;28;20508;-57
2023/08/26 09:23:46;;;;;;;6.95;2.47;;;21.80;99.90;;;;;;5031864;28;20048;-58
2023/08/26 09:26:12;;;;;;;5.90;2.65;;;22.00;99.90;;;;;;5028254;28;20037;-59
2023/08/26 09:28:45;;;;;;;7.78;2.60;;;22.20;99.90;;;;;;5029194;28;20040;-59
2023/08/26 09:31:11;;;;;;;5.45;2.10;;;22.30;99.90;;;;;;5025201;28;20045;-57
2023/08/26 09:33:36;;;;;;;4.32;2.33;;;22.50;99.90;;;;;;5029458;28;20037;-59
2023/08/26 09:36:02;;;;;;;5.40;2.22;;;22.70;99.90;;;;;;5028813;28;20112;-59
2023/08/26 09:38:31;;;;;;;4.75;1.95;;;22.80;99.90;;;;;;5033677;28;20024;-58
2023/08/26 09:40:57;;;;;;;14.00;1.90;;;22.90;99.90;;;;;;5029571;28;20127;-57
2023/08/26 09:43:23;;;;;;;3.78;1.30;;;23.00;99.90;;;;;;5026401;28;20029;-58
2023/08/26 09:45:53;;;;;;;7.60;2.95;;;23.10;99.90;;;;;;5029303;28;20421;-59
2023/08/26 09:48:23;;;;;;;9.60;2.05;;;23.20;99.90;;;;;;5026075;28;20020;-58
2023/08/26 09:50:49;;;;;;;5.47;2.20;;;23.10;99.90;;;;;;5027536;28;20033;-59
2023/08/26 09:53:28;;;;;;;4.55;2.08;;;23.10;99.90;;;;;;5025818;28;20030;-58
2023/08/26 09:55:56;;;;;;;6.35;2.00;;;23.20;99.90;;;;;;5030985;28;20033;-59
2023/08/26 09:58:22;;;;;;;5.18;2.25;;;23.40;99.90;;;;;;5029611;28;20103;-59
2023/08/26 10:00:50;;;;;;;6.38;2.35;;;23.40;99.90;;;;;;5031516;28;20553;-57
2023/08/26 10:03:19;;;;;;;5.30;1.92;;;23.30;99.90;;;;;;5029169;28;20473;-57
2023/08/26 10:05:46;;;;;;;6.22;1.90;;;23.30;99.90;;;;;;5032754;28;20021;-57
2023/08/26 10:08:12;;;;;;;2.88;2.00;;;23.10;99.90;;;;;;5027865;28;20108;-58
2023/08/26 10:10:50;;;;;;;7.97;2.30;;;23.00;99.90;;;;;;5025816;28;20128;-59
2023/08/26 10:13:27;;;;;;;4.88;2.03;;;22.80;99.90;;;;;;5030864;28;20098;-58
2023/08/26 10:15:56;;;;;;;3.78;2.13;;;22.80;99.90;;;;;;5030579;28;20029;-60
2023/08/26 10:18:36;;;;;;;5.43;2.17;;;22.70;99.90;;;;;;5033993;28;20037;-57
2023/08/26 10:21:03;;;;;;;4.40;2.08;;;22.70;99.90;;;;;;5026111;28;20061;-59
2023/08/26 10:23:29;;;;;;;5.25;2.10;;;22.90;99.90;;;;;;5022863;28;20113;-59
2023/08/26 10:25:56;;;;;;;8.15;2.05;;;23.20;99.90;;;;;;5031823;28;20056;-59
2023/08/26 10:28:24;;;;;;;3.97;1.90;;;23.50;99.90;;;;;;5034376;28;20030;-58
2023/08/26 10:30:50;;;;;;;8.63;1.63;;;23.70;99.90;;;;;;5035776;28;20060;-58
2023/08/26 10:33:18;;;;;;;2.97;1.65;;;23.70;99.90;;;;;;5031804;28;20052;-58
2023/08/26 10:35:57;;;;;;;3.30;2.00;;;23.90;99.90;;;;;;5020332;28;20029;-58
2023/08/26 10:38:23;;;;;;;4.75;1.70;;;24.10;99.90;;;;;;5027138;28;20037;-58
2023/08/26 10:40:48;;;;;;;3.95;1.95;;;24.20;99.90;;;;;;5023817;28;20113;-58
2023/08/26 10:43:14;;;;;;;5.93;2.55;;;24.50;99.90;;;;;;5027261;28;20022;-58
2023/08/26 10:45:50;;;;;;;3.17;1.83;;;24.60;99.90;;;;;;5025279;28;20030;-59
2023/08/26 10:48:16;;;;;;;9.10;2.15;;;24.70;99.90;;;;;;5026779;28;20021;-58
2023/08/26 10:50:46;;;;;;;5.07;2.22;;;24.70;99.90;;;;;;5026331;28;20041;-59
2023/08/26 10:53:19;;;;;;;5.05;2.22;;;25.00;99.90;;;;;;5031374;28;20490;-58
2023/08/26 10:55:47;;;;;;;4.28;2.35;;;25.10;99.90;;;;;;5030652;28;20037;-59
2023/08/26 10:58:18;;;;;;;12.27;2.10;;;25.00;99.90;;;;;;5027349;28;20399;-56
2023/08/26 11:00:49;;;;;;;3.47;1.55;;;24.90;99.90;;;;;;5022653;28;20026;-58
2023/08/26 11:03:18;;;;;;;3.53;1.90;;;24.90;99.90;;;;;;5022451;28;20029;-59
2023/08/26 11:05:45;;;;;;;3.92;1.73;;;24.90;99.90;;;;;;5020624;28;20024;-57
2023/08/26 11:08:12;;;;;;;4.53;2.10;;;24.90;99.90;;;;;;5024388;28;20371;-57
2023/08/26 11:10:39;;;;;;;3.60;1.98;;;24.60;99.90;;;;;;5016973;28;20065;-58
2023/08/26 11:13:06;;;;;;;4.55;2.08;;;24.40;99.90;;;;;;5026376;28;20053;-58
2023/08/26 11:15:35;;;;;;;6.75;3.03;;;24.20;99.90;;;;;;5028701;28;20056;-60
2023/08/26 11:18:01;;;;;;;3.78;2.10;;;24.20;99.90;;;;;;5025661;28;20480;-57
2023/08/26 11:20:28;;;;;;;4.63;1.90;;;24.00;99.90;;;;;;5022788;28;20042;-59
2023/08/26 11:22:54;;;;;;;4.20;1.95;;;23.90;99.90;;;;;;5026611;28;20033;-57
2023/08/26 11:25:20;;;;;;;5.60;2.30;;;23.70;99.90;;;;;;5020567;28;20033;-57
2023/08/26 11:27:46;;;;;;;2.65;1.80;;;23.60;99.90;;;;;;5026812;28;20022;-59
2023/08/26 11:30:12;;;;;;;4.72;2.00;;;23.70;99.90;;;;;;5023904;28;20056;-58
2023/08/26 11:32:39;;;;;;;5.28;2.80;;;24.00;99.90;;;;;;5027746;28;20028;-57
2023/08/26 11:35:06;;;;;;;3.72;2.30;;;24.10;99.90;;;;;;5024624;28;20026;-60
2023/08/26 11:37:42;;;;;;;3.70;1.80;;;24.30;99.90;;;;;;5022401;28;20498;-58
2023/08/26 11:40:09;;;;;;;5.80;2.35;;;24.20;99.90;;;;;;5025326;28;20037;-59
2023/08/26 11:42:35;;;;;;;3.38;2.20;;;24.10;99.90;;;;;;5027678;28;20022;-59
2023/08/26 11:45:02;;;;;;;4.18;2.60;;;24.00;99.90;;;;;;5025529;28;20481;-59
2023/08/26 11:47:27;;;;;;;3.92;2.63;;;23.90;99.90;;;;;;5023959;28;20038;-58
2023/08/26 11:49:57;;;;;;;5.00;1.67;;;23.90;99.90;;;;;;5028123;28;20041;-57
2023/08/26 11:52:36;;;;;;;3.90;2.75;;;23.80;99.90;;;;;;5028314;28;20033;-59
2023/08/26 11:55:03;;;;;;;6.32;2.75;;;23.70;99.90;;;;;;5032487;28;20425;-59
2023/08/26 11:57:35;;;;;;;4.50;1.98;;;23.60;99.90;;;;;;5031534;28;20041;-57
2023/08/26 12:00:17;;;;;;;6.20;3.05;;;23.50;99.90;;;;;;5028884;28;20035;-59
2023/08/26 12:02:50;;;;;;;5.95;3.20;;;23.30;99.90;;;;;;5033105;28;20452;-58
2023/08/26 12:05:17;;;;;;;4.90;2.30;;;23.20;99.90;;;;;;5032159;28;20037;-57
2023/08/26 12:07:50;;;;;;;4.78;2.45;;;23.20;99.90;;;;;;5032902;28;20059;-57
2023/08/26 12:10:20;;;;;;;6.13;3.15;;;23.00;99.90;;;;;;5029404;28;20072;-59
2023/08/26 12:12:47;;;;;;;12.13;3.17;;;22.90;99.90;;;;;;5026732;28;20033;-57
2023/08/26 12:15:22;;;;;;;4.88;2.50;;;22.70;99.90;;;;;;5028653;28;20026;-59
2023/08/26 12:17:49;;;;;;;5.40;2.30;;;22.70;99.90;;;;;;5025404;28;20030;-57
2023/08/26 12:20:20;;;;;;;4.57;2.35;;;22.70;99.90;;;;;;5025140;28;20117;-57
2023/08/26 12:22:46;;;;;;;8.00;2.88;;;23.00;99.90;;;;;;5026328;28;20435;-57
2023/08/26 12:25:22;;;;;;;6.80;2.45;;;23.30;99.90;;;;;;5030415;28;20037;-58